Temple, OK (73568)

8:22 AM CDT on April 29, 2017 (GMT -0500)
Musgrove Edition Walters, OK | | Change Station

Elev 1079 ft 34.36 °N, 98.35 °W | Updated 13 minutes ago

Overcast
Overcast
52.3 °F
Feels Like 52.3 °F
N
16.1
Wind Variable Wind from NNE

Today
High -- | Low -- °F
--% Chance of Precip.
Yesterday
High -- | Low -- °F
Precip. -- in
Pressure 29.55 in
Visibility 10.0 miles
Clouds Few 2900 ft
Mostly Cloudy 6000 ft
Overcast 7000 ft
Dew Point 47 °F
Humidity 82%
Rainfall 0.00 in
Snow Depth Not available.
6:45 AM 8:15 PM
Waxing Crescent, 13% visible
METAR KLAW 291253Z 04021G32KT 10SM FEW029 BKN060 OVC070 11/09 A2956 RMK AO2 PK WND 01044/1214 LTG DSNT W AND NW PRESFR SLP004 T01060089
Pressure 29.55 in
Visibility 10.0 miles
Clouds Few 2900 ft
Mostly Cloudy 6000 ft
Overcast 7000 ft
Dew Point 47 °F
Humidity 82%
Rainfall 0.00 in
Snow Depth Not available.
6:45 AM 8:15 PM
Waxing Crescent, 13% visible
METAR KLAW 291253Z 04021G32KT 10SM FEW029 BKN060 OVC070 11/09 A2956 RMK AO2 PK WND 01044/1214 LTG DSNT W AND NW PRESFR SLP004 T01060089

Get Severe Weather Alerts

Thanks for signing up!

Be on the lookout for a verification email in your inbox.

You'll start receiving the daily forecast at 8 AM.

×

10-Day Weather Forecast

Almanac

Astronomy

Apr. 29, 2017 Rise Set
Actual Time
Civil Twilight
Nautical Twilight
Astronomical Twilight
Moon
Length of Visible Light
Length of Day
Tomorrow will be .
, % of the Moon is Illuminated

Today's Extremes

State Highs State Lows

Community

WunderPhotos

WunderBlog® & News

Nearby

Air Quality

  Air Quality AQ Index Pollutant
Not available.

Snow Depth

Station Depth Elevation

Earthquake Activity

City Distance Mag. Time & Date
Minimum magnitude displayed is 2.5.

Coastal Water Temperatures

Place Temperature

Stations

Nearby Weather Stations

Station Location Temp. Windchill Dew Point Humidity Wind Precip. Elev Updated Type
                   

Watches & Warnings

There are currently no watches in effect.